PNWORCA Winter Series Race 2 - Jericho

Saturday, January 21, 2017 10:57 AM (GMT-8) - Final results

Race info
Sport: Paddling
Location: Vancouver, BC, Canada
Start type: Mass start
Racers: 54
Timed on: iPad
Timed with: Webscorer PRO 2.5
Updated: Monday, March 13, 2017 12:03 PM (GMT-8)
Organized by: Jericho Paddling Club
Race website: http://www.jerichopaddling.com

Contact organizer

Use this form to send an email to the organizer.

Your name
Your email address
Confirm email address
Message to organizer
Send

Place Bib Racer name Category Gender Finish time
1125Michael Lee Pete WellsOC2 Masters 40 MenM 55:39.1--100%17.59%15.74%
2742Rob MagusOC1 Masters 40 MenM 57:15.9+1:36.8+2.90%97.18%15.20%13.30%
3115Shane MartinSurfski Masters 40 MenM 57:47.2+2:08.1+3.84%96.31%14.43%12.51%
4383Chris DubrovolnySurfski Masters 50 MenM 58:12.6+2:33.5+4.60%95.60%13.80%11.87%
5204Lorri Stewart Mike BernemannOC2 Masters 40 MixedF/M 58:27.9+2:48.8+5.06%95.19%13.43%11.48%
6473Dustin ReiversSurfski Masters 60 MenM 58:52.3+3:13.2+5.79%94.53%12.82%10.87%
7382Beau WhiteheadOC1 Masters 40 MenM 59:50.0+4:10.9+7.51%93.01%11.40%9.41%
8719Deborah Pabdorfkent GorrieOC2 Open MixedF/M 1:00:22.6+4:43.5+8.49%92.17%10.59%8.59%
9478Peter MarcusOC1 Masters 50 MenM 1:00:41.6+5:02.5+9.06%91.69%10.13%8.11%
10479Mike HammerOC1 Open MenM 1:01:03.3+5:24.2+9.71%91.15%9.59%7.56%
11369Chris Christie (8km course)SUP Open MenM 1:01:34.5+5:55.4+10.64%90.38%8.82%6.77%
12426Felix OttenbachOC1 Open MenM 1:01:39.7+6:00.6+10.80%90.25%8.69%6.64%
13482David Oreiro Paul H AioOC2 Masters 60 MenM 1:01:41.5+6:02.4+10.85%90.21%8.65%6.60%
14855Patrick HuangOC1 Masters 40 MenM 1:02:26.9+6:47.8+12.21%89.12%7.53%5.45%
15476Dan MoseleyOC1 Masters 40 MenM 1:02:32.6+6:53.5+12.38%88.98%7.39%5.31%
16237JD LongOC1 Open MenM 1:02:49.5+7:10.4+12.89%88.58%6.97%4.88%
1766Mike Clarke Rob MonterioOC2 Masters 40 MenM 1:03:05.1+7:26.0+13.36%88.22%6.58%4.49%
18289Lance RomoOC1 Masters 40 MenM 1:03:20.1+7:41.0+13.81%87.87%6.21%4.11%
19727Ben SmillieOC1 Masters 40 MenM 1:03:25.8+7:46.7+13.98%87.74%6.07%3.96%
2059Csaba KutrovicsOC1 Masters 40 MenM 1:03:34.7+7:55.6+14.24%87.53%5.85%3.74%
21151Doug ThomasOC1 Masters 50 MenM 1:03:43.5+8:04.4+14.51%87.33%5.64%3.52%
22888Brian SmartOC1 Masters 50 MenM 1:03:47.3+8:08.2+14.62%87.24%5.54%3.42%
23826Ryan KearnsOC1 Open MenM 1:04:09.1+8:30.0+15.27%86.75%5.00%2.87%
24726Ernie WongOC1 Masters 40 MenM 1:04:16.2+8:37.1+15.49%86.59%4.83%2.69%
25316Andrew McLeanV1 Masters 40 MenM 1:04:38.4+8:59.3+16.15%86.09%4.28%2.13%
26741Lance KahnOC1 Masters 60 MenM 1:05:27.1+9:48.0+17.61%85.03%3.08%0.90%
27739Darrell SmithOC1 Masters 60 MenM 1:05:51.6+10:12.5+18.34%84.50%2.47%0.29%
28412Kim DolezsarOC1 Masters 60 MenM 1:06:14.2+10:35.1+19.02%84.02%1.92%-0.29%
29707Tamas MitalyOC1 Masters 40 MenM 1:06:43.0+11:03.9+19.88%83.41%1.21%-1.01%
30543Tyler IrwinOC1 Open MenM 1:06:58.9+11:19.8+20.36%83.08%0.81%-1.41%
31384Michael ParksOC1 Masters 60 MenM 1:07:47.1+12:08.0+21.80%82.10%-0.38%-2.63%
32870Jason ParkOC1 Masters 40 MenM 1:08:14.4+12:35.3+22.62%81.55%-1.05%-3.32%
33587David HartleyOC1 Masters 60 MenM 1:08:24.6+12:45.5+22.93%81.35%-1.30%-3.58%
34605Alexandra Gehring / Leslie ClarkOC2 Open WomenF 1:08:29.0+12:49.9+23.06%81.26%-1.41%-3.69%
3572Mignon FontenelleOC1 Masters 40 WomenF 1:09:15.4+13:36.3+24.45%80.36%-2.56%-4.86%
36480Dusan KafkaOC1 Masters 50 MenM 1:09:17.9+13:38.8+24.52%80.31%-2.62%-4.92%
37385Eric VesterSurfski Open MenM 1:09:46.4+14:07.3+25.38%79.76%-3.32%-5.64%
38808Greg MaresOC1 Open MenM 1:10:03.7+14:24.6+25.89%79.43%-3.75%-6.08%
39499Greg KohlrussOC1 Masters 50 MenM 1:10:48.7+15:09.6+27.24%78.59%-4.86%-7.21%
40481Nikki Pearson / Mimosa BryantOC2 Masters 40 WomenF 1:11:15.0+15:35.9+28.03%78.11%-5.51%-7.88%
41735Scott BorleOC1 Masters 40 MenM 1:11:45.9+16:06.8+28.95%77.55%-6.27%-8.66%
42755Fay Tong / Lon KincannonOC2 Masters 60 MixedF/M 1:12:19.8+16:40.7+29.97%76.94%-7.11%-9.51%
4327Kenneth AngOC1 Masters 40 MenM 1:12:22.3+16:43.2+30.04%76.90%-7.17%-9.57%
44743Samuel SiuOC1 Open MenM 1:12:47.9+17:08.8+30.81%76.45%-7.80%-10.22%
45407Graeme GalvesV1 Open MenM 1:13:22.7+17:43.6+31.85%75.84%-8.66%-11.10%
46570Rick RenaudOC1 Masters 50 MenM 1:13:29.6+17:50.5+32.06%75.72%-8.83%-11.27%
47899Neil PlumeOC1 Masters 50 MenM 1:13:41.0+18:01.9+32.40%75.53%-9.11%-11.56%
48170Estelle MathesonOC1 Masters 40 WomenF 1:18:18.8+22:39.7+40.72%71.06%-15.97%-18.57%
49539Sandi Mitchell / Adrianna MassiwkoffOC2 Masters 40 WomenF 1:18:40.7+23:01.6+41.38%70.73%-16.51%-19.12%
50474Lyenne LawrieOC1 Novice WomenF 1:19:14.6+23:35.5+42.39%70.23%-17.34%-19.98%
51381Chris CullerOC1 Open MenM 1:21:43.5+26:04.4+46.85%68.10%-21.02%-23.74%
521Shannon BellSUP Open WomenF 1:23:50.5+28:11.4+50.65%66.38%-24.15%-26.94%
53528Aaron LoneyOC1 Novice MenM 1:27:24.4+31:45.3+57.06%63.67%-29.43%-32.34%
54749Krisztina HarasztosiV1 Open WomenF 1:28:04.7+32:25.6+58.27%63.18%-30.43%-33.35%